createdAt,value
2022-09-02T00:00:54.667Z,11.06
2022-09-02T00:01:54.741Z,11.00
2022-09-02T00:02:54.797Z,10.96
2022-09-02T00:03:54.626Z,11.07
2022-09-02T00:04:54.680Z,11.10
2022-09-02T00:05:54.620Z,11.06
2022-09-02T00:06:54.586Z,10.99
2022-09-02T00:07:54.597Z,10.96
2022-09-02T00:08:54.560Z,11.04
2022-09-02T00:09:54.574Z,11.03
2022-09-02T00:10:54.554Z,11.03
2022-09-02T00:11:54.527Z,10.96
2022-09-02T00:12:54.568Z,10.97
2022-09-02T00:13:54.544Z,10.99
2022-09-02T00:14:54.515Z,11.02
2022-09-02T00:15:54.483Z,11.03
2022-09-02T00:16:54.547Z,10.94
2022-09-02T00:17:54.465Z,10.92
2022-09-02T00:18:54.472Z,11.03
2022-09-02T00:19:56.253Z,10.97
2022-09-02T00:20:54.443Z,10.97
2022-09-02T00:21:54.416Z,11.04
2022-09-02T00:22:54.531Z,10.92
2022-09-02T00:23:54.392Z,10.84
2022-09-02T00:24:54.416Z,10.96
2022-09-02T00:25:54.370Z,11.07
2022-09-02T00:26:56.613Z,10.97
2022-09-02T00:27:54.344Z,11.00
2022-09-02T00:28:56.320Z,10.97
2022-09-02T00:29:54.370Z,10.89
2022-09-02T00:30:54.344Z,11.03
2022-09-02T00:31:54.430Z,11.02
2022-09-02T00:32:54.329Z,11.00
2022-09-02T00:33:54.288Z,11.00
2022-09-02T00:34:54.326Z,10.96
2022-09-02T00:35:54.280Z,10.99
2022-09-02T00:36:54.273Z,10.84
2022-09-02T00:37:54.231Z,10.88
2022-09-02T00:38:54.224Z,10.89
2022-09-02T00:39:54.222Z,10.84
2022-09-02T00:40:54.223Z,10.85
2022-09-02T00:41:54.220Z,10.85
2022-09-02T00:42:54.191Z,10.85
2022-09-02T00:43:54.177Z,10.86
2022-09-02T00:44:54.209Z,10.85
2022-09-02T00:45:54.166Z,10.86
2022-09-02T00:46:54.191Z,10.85
2022-09-02T00:47:54.187Z,10.76
2022-09-02T00:48:54.138Z,10.70
2022-09-02T00:49:54.121Z,10.74
2022-09-02T00:50:54.088Z,10.74
2022-09-02T00:51:54.076Z,10.73
2022-09-02T00:52:54.069Z,10.71
2022-09-02T00:56:21.842Z,10.55
2022-09-02T00:57:12.620Z,10.55
2022-09-02T00:58:12.571Z,10.47
2022-09-02T00:59:12.536Z,10.40
2022-09-02T01:00:12.571Z,10.41
2022-09-02T01:01:12.605Z,10.34
2022-09-02T01:02:12.629Z,10.47
2022-09-02T01:03:12.503Z,10.42
2022-09-02T01:04:12.474Z,10.33
2022-09-02T01:05:12.470Z,10.30
2022-09-02T01:06:12.499Z,10.34
2022-09-02T01:07:12.428Z,10.40
2022-09-02T01:08:12.491Z,10.32
2022-09-02T01:09:12.388Z,10.27
2022-09-02T01:10:12.433Z,10.23
2022-09-02T01:11:12.438Z,10.22
2022-09-02T01:12:12.422Z,10.23
2022-09-02T01:13:12.442Z,10.17
2022-09-02T01:14:12.371Z,10.25
2022-09-02T01:15:12.388Z,10.15
2022-09-02T01:16:12.407Z,10.17
2022-09-02T01:17:12.348Z,10.09
2022-09-02T01:18:12.352Z,10.14
2022-09-02T01:19:12.310Z,10.15
2022-09-02T01:20:12.313Z,10.17
2022-09-02T01:21:12.329Z,10.17
2022-09-02T01:22:12.293Z,10.14
2022-09-02T01:23:12.279Z,10.07
2022-09-02T01:24:12.321Z,10.02
2022-09-02T01:25:12.266Z,10.02
2022-09-02T01:26:12.264Z,10.01
2022-09-02T01:27:12.237Z,9.94
2022-09-02T01:28:12.225Z,9.91
2022-09-02T01:29:12.268Z,9.87
2022-09-02T01:30:12.337Z,9.86
2022-09-02T01:31:12.208Z,9.86
2022-09-02T01:32:12.148Z,9.83
2022-09-02T01:33:12.127Z,9.83
2022-09-02T01:34:12.105Z,9.81
2022-09-02T01:35:12.100Z,9.79
2022-09-02T01:36:12.095Z,9.75
2022-09-02T01:37:12.086Z,9.66
2022-09-02T01:38:12.058Z,9.74
2022-09-02T01:39:12.061Z,9.68
2022-09-02T01:40:12.071Z,9.69
2022-09-02T01:41:12.036Z,9.69
2022-09-02T01:42:12.011Z,9.69
2022-09-02T01:43:11.997Z,9.65
2022-09-02T01:44:12.022Z,9.64
2022-09-02T01:45:11.977Z,9.60
2022-09-02T01:46:12.007Z,9.64
2022-09-02T01:47:11.966Z,9.61
2022-09-02T01:48:11.943Z,9.58
2022-09-02T01:49:11.929Z,9.51
2022-09-02T01:50:11.944Z,9.53
2022-09-02T01:51:11.906Z,9.53
2022-09-02T01:52:11.895Z,9.53
2022-09-02T01:53:11.981Z,9.50
2022-09-02T01:54:11.892Z,9.50
2022-09-02T01:55:11.862Z,9.50
2022-09-02T01:56:11.849Z,9.48
2022-09-02T01:57:11.841Z,9.47
2022-09-02T01:58:11.827Z,9.43
2022-09-02T01:59:11.848Z,9.42
2022-09-02T02:00:11.939Z,9.38
2022-09-02T02:01:11.881Z,9.35
2022-09-02T02:02:11.877Z,9.33
2022-09-02T02:03:11.775Z,9.35
2022-09-02T02:04:13.511Z,9.35
2022-09-02T02:05:11.759Z,9.31
2022-09-02T02:06:11.757Z,9.36
2022-09-02T02:07:11.744Z,9.32
2022-09-02T02:08:11.725Z,9.32
2022-09-02T02:09:11.803Z,9.33
2022-09-02T02:10:11.791Z,9.28
2022-09-02T02:11:11.713Z,9.35
2022-09-02T02:12:11.700Z,9.15
2022-09-02T02:13:11.655Z,9.20
2022-09-02T02:14:11.754Z,9.23
2022-09-02T02:15:11.632Z,9.21
2022-09-02T02:16:11.702Z,9.17
2022-09-02T02:17:11.626Z,9.20
2022-09-02T02:18:14.579Z,9.15
2022-09-02T02:19:11.587Z,9.24
2022-09-02T02:20:11.594Z,9.15
2022-09-02T02:21:11.564Z,9.17
2022-09-02T02:22:11.558Z,9.15
2022-09-02T02:23:11.579Z,9.08
2022-09-02T02:24:11.532Z,9.13
2022-09-02T02:25:11.525Z,9.10
2022-09-02T02:26:11.508Z,9.11
2022-09-02T02:27:11.496Z,9.05
2022-09-02T02:28:11.506Z,8.98
2022-09-02T02:29:11.506Z,9.01
2022-09-02T02:30:11.460Z,9.05
2022-09-02T02:31:11.496Z,9.05
2022-09-02T02:32:11.445Z,9.01
2022-09-02T02:33:11.430Z,9.05
2022-09-02T02:34:11.439Z,9.08
2022-09-02T02:35:11.443Z,8.96
2022-09-02T02:36:11.394Z,8.99
2022-09-02T02:37:11.378Z,8.99
2022-09-02T02:38:14.239Z,9.01
2022-09-02T02:39:11.383Z,9.02
2022-09-02T02:40:11.399Z,8.96
2022-09-02T02:41:11.351Z,8.99
2022-09-02T02:42:11.326Z,8.96
2022-09-02T02:43:11.313Z,9.02
2022-09-02T02:44:11.303Z,8.95
2022-09-02T02:45:15.174Z,8.89
2022-09-02T02:46:11.324Z,8.89
2022-09-02T02:47:11.284Z,8.89
2022-09-02T02:48:11.264Z,8.89
2022-09-02T02:49:11.244Z,8.89
2022-09-02T02:50:11.254Z,8.74
2022-09-02T02:51:11.229Z,8.84
2022-09-02T02:52:11.227Z,8.89
2022-09-02T02:53:14.080Z,8.81
2022-09-02T02:54:11.190Z,8.80
2022-09-02T02:55:11.197Z,8.87
2022-09-02T02:56:11.165Z,8.91
2022-09-02T02:57:11.153Z,8.86
2022-09-02T02:58:11.159Z,8.86
2022-09-02T02:59:12.132Z,8.76
2022-09-02T03:00:11.146Z,8.84
2022-09-02T03:01:11.108Z,8.83
2022-09-02T03:02:11.164Z,8.71
2022-09-02T03:03:11.124Z,8.79
2022-09-02T03:04:11.106Z,8.74
2022-09-02T03:05:11.080Z,8.70
2022-09-02T03:06:11.050Z,8.77
2022-09-02T03:07:11.079Z,8.74
2022-09-02T03:08:11.031Z,8.73
2022-09-02T03:09:11.014Z,8.74
2022-09-02T03:10:11.035Z,8.74
2022-09-02T03:11:10.992Z,8.68
2022-09-02T03:12:10.981Z,8.66
2022-09-02T03:13:10.975Z,8.66
2022-09-02T03:14:10.958Z,8.63
2022-09-02T03:15:10.964Z,8.63
2022-09-02T03:16:11.020Z,8.62
2022-09-02T03:17:10.927Z,8.59
2022-09-02T03:18:10.988Z,8.59
2022-09-02T03:19:10.899Z,8.50
2022-09-02T03:20:10.907Z,8.53
2022-09-02T03:21:10.875Z,8.58
2022-09-02T03:22:10.892Z,8.52
2022-09-02T03:23:10.853Z,8.56
2022-09-02T03:24:10.843Z,8.56
2022-09-02T03:25:10.847Z,8.48
2022-09-02T03:26:10.819Z,8.48
2022-09-02T03:27:10.804Z,8.53
2022-09-02T03:28:10.808Z,8.50
2022-09-02T03:29:10.803Z,8.44
2022-09-02T03:30:10.794Z,8.48
2022-09-02T03:31:10.814Z,8.45
2022-09-02T03:32:10.768Z,8.44
2022-09-02T03:33:10.736Z,8.41
2022-09-02T03:34:10.742Z,8.45
2022-09-02T03:35:10.732Z,8.40
2022-09-02T03:36:10.702Z,8.50
2022-09-02T03:37:10.710Z,8.45
2022-09-02T03:38:10.746Z,8.41
2022-09-02T03:39:10.666Z,8.41
2022-09-02T03:40:10.721Z,8.45
2022-09-02T03:41:10.642Z,8.43
2022-09-02T03:42:11.213Z,8.45
2022-09-02T03:43:11.617Z,8.48
2022-09-02T03:44:10.607Z,8.33
2022-09-02T03:45:10.616Z,8.22
2022-09-02T03:46:10.664Z,8.28
2022-09-02T03:47:10.573Z,8.25
2022-09-02T03:48:10.582Z,8.23
2022-09-02T03:49:10.552Z,8.28
2022-09-02T03:50:10.560Z,8.22
2022-09-02T03:51:10.571Z,8.28
2022-09-02T03:52:10.669Z,8.20
2022-09-02T03:53:16.587Z,8.22
2022-09-02T03:54:11.530Z,8.15
2022-09-02T03:55:10.503Z,8.16
2022-09-02T03:56:10.492Z,8.18
2022-09-02T03:57:10.457Z,8.16
2022-09-02T03:58:10.458Z,8.30
2022-09-02T03:59:11.549Z,8.11
2022-09-02T04:00:10.422Z,8.16
2022-09-02T04:01:10.516Z,8.19
2022-09-02T04:02:10.573Z,8.19
2022-09-02T04:03:10.427Z,8.19
2022-09-02T04:04:10.410Z,8.19
2022-09-02T04:05:15.802Z,8.11
2022-09-02T04:06:11.351Z,8.16
2022-09-02T04:07:10.342Z,8.16
2022-09-02T04:08:10.328Z,8.16
2022-09-02T04:09:10.328Z,8.19
2022-09-02T04:10:10.339Z,8.15
2022-09-02T04:11:10.314Z,8.15
2022-09-02T04:12:10.283Z,8.11
2022-09-02T04:13:10.274Z,8.07
2022-09-02T04:14:10.278Z,8.15
2022-09-02T04:15:10.269Z,8.07
2022-09-02T04:16:10.537Z,8.08
2022-09-02T04:17:10.226Z,8.12
2022-09-02T04:18:10.213Z,8.18
2022-09-02T04:19:10.218Z,8.15
2022-09-02T04:20:10.187Z,8.16
2022-09-02T04:21:10.190Z,8.05
2022-09-02T04:22:10.166Z,8.08
2022-09-02T04:23:10.251Z,8.05
2022-09-02T04:24:10.188Z,8.07
2022-09-02T04:25:10.152Z,8.10
2022-09-02T04:26:10.124Z,8.07
2022-09-02T04:27:10.122Z,8.07
2022-09-02T04:28:10.101Z,7.90
2022-09-02T04:29:10.087Z,7.95
2022-09-02T04:30:10.092Z,7.98
2022-09-02T04:31:10.183Z,8.01
2022-09-02T04:32:10.051Z,7.95
2022-09-02T04:33:10.065Z,8.01
2022-09-02T04:34:10.027Z,8.02
2022-09-02T04:35:10.036Z,8.11
2022-09-02T04:36:10.012Z,8.11
2022-09-02T04:37:09.997Z,8.08
2022-09-02T04:38:09.980Z,8.08
2022-09-02T04:39:10.008Z,8.04
2022-09-02T04:40:10.051Z,8.11
2022-09-02T04:41:09.953Z,8.07
2022-09-02T04:42:09.936Z,7.90
2022-09-02T04:43:09.930Z,8.05
2022-09-02T04:44:09.936Z,8.04
2022-09-02T04:45:09.940Z,8.05
2022-09-02T04:46:09.960Z,8.05
2022-09-02T04:47:09.882Z,8.02
2022-09-02T04:48:09.867Z,8.05
2022-09-02T04:49:09.879Z,8.01
2022-09-02T04:50:09.866Z,8.10
2022-09-02T04:51:09.858Z,8.11
2022-09-02T04:52:09.822Z,8.05
2022-09-02T04:53:09.810Z,8.10
2022-09-02T04:54:09.798Z,8.15
2022-09-02T04:55:09.813Z,8.18
2022-09-02T04:56:09.771Z,8.15
2022-09-02T04:57:09.803Z,8.20
2022-09-02T04:58:09.749Z,8.19
2022-09-02T04:59:09.760Z,8.12
2022-09-02T05:00:09.726Z,8.19
2022-09-02T05:01:09.813Z,8.16
2022-09-02T05:02:09.907Z,8.15
2022-09-02T05:03:09.705Z,8.18
2022-09-02T05:04:09.888Z,8.25
2022-09-02T05:05:09.691Z,8.25
2022-09-02T05:06:09.677Z,8.29
2022-09-02T05:07:09.648Z,8.28
2022-09-02T05:08:09.638Z,8.25
2022-09-02T05:09:09.643Z,8.30
2022-09-02T05:10:09.633Z,8.29
2022-09-02T05:11:09.603Z,8.26
2022-09-02T05:12:09.588Z,8.26
2022-09-02T05:13:09.580Z,8.37
2022-09-02T05:14:09.566Z,8.23
2022-09-02T05:15:09.599Z,8.37
2022-09-02T05:16:09.628Z,8.36
2022-09-02T05:17:09.535Z,8.30
2022-09-02T05:18:09.521Z,8.44
2022-09-02T05:19:09.510Z,8.45
2022-09-02T05:20:09.518Z,8.47
2022-09-02T05:21:09.502Z,8.50
2022-09-02T05:22:09.476Z,8.43
2022-09-02T05:23:09.461Z,8.44
2022-09-02T05:24:09.453Z,8.50
2022-09-02T05:25:09.466Z,8.53
2022-09-02T05:26:09.430Z,8.65
2022-09-02T05:27:09.481Z,8.63
2022-09-02T05:28:09.405Z,8.61
2022-09-02T05:29:09.404Z,8.70
2022-09-02T05:30:09.411Z,8.66
2022-09-02T05:31:09.442Z,8.74
2022-09-02T05:32:09.358Z,8.81
2022-09-02T05:33:09.361Z,8.77
2022-09-02T05:34:09.336Z,8.87
2022-09-02T05:35:09.346Z,8.86
2022-09-02T05:36:09.537Z,8.83
2022-09-02T05:37:09.301Z,8.91
2022-09-02T05:38:09.290Z,8.91
2022-09-02T05:39:09.293Z,8.96
2022-09-02T05:40:10.473Z,9.10
2022-09-02T05:41:09.292Z,9.13
2022-09-02T05:42:09.247Z,9.17
2022-09-02T05:43:09.232Z,9.24
2022-09-02T05:44:09.215Z,9.15
2022-09-02T05:45:09.205Z,9.40
2022-09-02T05:46:09.257Z,9.43
2022-09-02T05:47:09.203Z,9.51
2022-09-02T05:48:09.241Z,9.53
2022-09-02T05:49:09.302Z,9.69
2022-09-02T05:50:09.171Z,9.69
2022-09-02T05:51:09.152Z,9.72
2022-09-02T05:52:09.128Z,9.84
2022-09-02T05:53:14.234Z,9.87
2022-09-02T05:54:10.107Z,9.83
2022-09-02T05:55:09.120Z,10.05
2022-09-02T05:56:09.089Z,9.99
2022-09-02T05:57:09.093Z,10.14
2022-09-02T05:58:09.064Z,10.11
2022-09-02T05:59:09.073Z,10.15
2022-09-02T06:00:09.040Z,10.25
2022-09-02T06:01:09.025Z,10.25
2022-09-02T06:02:09.130Z,10.32
2022-09-02T06:03:09.063Z,10.40
2022-09-02T06:04:09.015Z,10.42
2022-09-02T06:05:08.989Z,10.51
2022-09-02T06:06:08.970Z,10.88
2022-09-02T06:07:09.050Z,11.69
2022-09-02T06:08:08.946Z,12.65
2022-09-02T06:09:08.937Z,13.59
2022-09-02T06:10:08.942Z,14.33
2022-09-02T06:11:08.910Z,15.10
2022-09-02T06:12:08.919Z,15.72
2022-09-02T06:13:08.892Z,16.27
2022-09-02T06:14:08.874Z,16.93
2022-09-02T06:15:08.888Z,17.48
2022-09-02T06:16:08.966Z,17.93
2022-09-02T06:17:08.842Z,18.65
2022-09-02T06:18:08.828Z,18.92
2022-09-02T06:19:08.849Z,19.26
2022-09-02T06:20:08.809Z,19.46
2022-09-02T06:21:08.801Z,19.65
2022-09-02T06:22:09.308Z,19.81
2022-09-02T06:23:08.774Z,20.03
2022-09-02T06:24:08.761Z,20.35
2022-09-02T06:25:08.776Z,20.87
2022-09-02T06:26:08.742Z,21.13
2022-09-02T06:27:08.732Z,21.31
2022-09-02T06:28:08.822Z,21.54
2022-09-02T06:29:08.712Z,21.91
2022-09-02T06:30:08.693Z,22.09
2022-09-02T06:31:08.765Z,22.52
2022-09-02T06:32:08.675Z,22.46
2022-09-02T06:33:08.663Z,22.58
2022-09-02T06:34:08.657Z,22.77
2022-09-02T06:35:08.666Z,22.79
2022-09-02T06:36:08.651Z,22.85
2022-09-02T06:37:08.619Z,23.07
2022-09-02T06:38:08.609Z,23.27
2022-09-02T06:39:08.600Z,23.36
2022-09-02T06:40:08.660Z,23.69
2022-09-02T06:41:08.578Z,24.12
2022-09-02T06:42:08.558Z,24.43
2022-09-02T06:43:08.555Z,24.69
2022-09-02T06:44:08.569Z,24.93
2022-09-02T06:45:08.533Z,24.93
2022-09-02T06:46:08.601Z,24.93
2022-09-02T06:47:08.509Z,25.03
2022-09-02T06:48:08.534Z,24.65
2022-09-02T06:49:08.483Z,24.58
2022-09-02T06:50:08.468Z,24.81
2022-09-02T06:51:08.459Z,25.09
2022-09-02T06:52:08.447Z,25.28
2022-09-02T06:53:08.455Z,25.47
2022-09-02T06:54:08.439Z,25.60
2022-09-02T06:55:08.414Z,25.61
2022-09-02T06:56:17.487Z,25.75
2022-09-02T06:57:08.395Z,25.82
2022-09-02T06:58:08.391Z,25.77
2022-09-02T06:59:08.426Z,25.79
2022-09-02T07:00:08.542Z,25.87
2022-09-02T07:01:08.404Z,25.76
2022-09-02T07:02:08.596Z,25.69
2022-09-02T07:03:08.344Z,25.61
2022-09-02T07:04:08.315Z,25.52
2022-09-02T07:05:08.306Z,25.36
2022-09-02T07:06:08.350Z,25.36
2022-09-02T07:07:08.292Z,25.55
2022-09-02T07:08:08.271Z,25.61
2022-09-02T07:09:08.265Z,25.64
2022-09-02T07:10:08.256Z,25.36
2022-09-02T07:11:08.285Z,24.47
2022-09-02T07:12:08.235Z,23.91
2022-09-02T07:13:08.350Z,23.35
2022-09-02T07:14:08.215Z,23.04
2022-09-02T07:15:08.218Z,22.46
2022-09-02T07:16:08.305Z,22.18
2022-09-02T07:17:08.491Z,22.24
2022-09-02T07:18:08.167Z,22.64
2022-09-02T07:19:13.156Z,22.85
2022-09-02T07:20:09.151Z,23.05
2022-09-02T07:21:11.047Z,23.01
2022-09-02T07:22:08.382Z,22.80
2022-09-02T07:23:08.126Z,22.79
2022-09-02T07:24:08.099Z,22.57
2022-09-02T07:25:08.087Z,22.43
2022-09-02T07:26:08.094Z,22.35
2022-09-02T07:27:08.090Z,22.10
2022-09-02T07:28:08.078Z,22.00
2022-09-02T07:29:08.061Z,22.03
2022-09-02T07:30:08.031Z,22.21
2022-09-02T07:31:08.040Z,22.31
2022-09-02T07:32:08.008Z,22.22
2022-09-02T07:33:08.020Z,22.39
2022-09-02T07:34:07.985Z,22.51
2022-09-02T07:35:08.005Z,22.67
2022-09-02T07:36:10.983Z,22.47
2022-09-02T07:37:10.904Z,22.17
2022-09-02T07:38:07.944Z,22.07
2022-09-02T07:39:07.931Z,21.80
2022-09-02T07:40:08.011Z,21.37
2022-09-02T07:41:07.957Z,21.07
2022-09-02T07:42:07.953Z,20.95
2022-09-02T07:43:07.889Z,20.73
2022-09-02T07:44:07.893Z,20.80
2022-09-02T07:45:07.868Z,21.03
2022-09-02T07:46:09.347Z,21.06
2022-09-02T07:49:05.149Z,21.27
2022-09-02T07:50:21.301Z,20.73
2022-09-02T07:51:05.242Z,20.52
2022-09-02T07:52:04.407Z,20.20
2022-09-02T07:53:05.167Z,20.11
2022-09-02T07:54:04.347Z,20.24
2022-09-02T07:55:14.942Z,20.48
2022-09-02T07:56:04.751Z,20.59
2022-09-02T07:57:04.150Z,20.73
2022-09-02T07:58:04.318Z,20.88
2022-09-02T07:59:04.150Z,20.84
2022-09-02T08:00:04.144Z,20.38
2022-09-02T08:01:04.180Z,19.98
2022-09-02T08:02:04.206Z,19.98
2022-09-02T08:03:04.391Z,20.02
2022-09-02T08:04:06.153Z,20.17
2022-09-02T08:05:04.079Z,20.11
2022-09-02T08:06:04.252Z,19.91
2022-09-02T08:07:04.032Z,19.98
2022-09-02T08:08:04.025Z,20.18
2022-09-02T08:09:04.038Z,20.42
2022-09-02T08:10:04.008Z,20.67
2022-09-02T08:11:04.014Z,20.57
2022-09-02T08:12:04.005Z,20.41
2022-09-02T08:13:04.002Z,19.83
2022-09-02T08:14:03.962Z,19.48
2022-09-02T08:15:03.952Z,19.51
2022-09-02T08:16:04.018Z,19.54
2022-09-02T08:17:03.940Z,19.59
2022-09-02T08:18:03.935Z,19.80
2022-09-02T08:19:03.902Z,19.98
2022-09-02T08:20:04.245Z,20.18
2022-09-02T08:21:03.888Z,20.01
2022-09-02T08:22:03.874Z,19.88
2022-09-02T08:23:11.877Z,19.76
2022-09-02T08:24:04.856Z,19.83
2022-09-02T08:25:03.835Z,20.02
2022-09-02T08:26:03.824Z,20.21
2022-09-02T08:27:03.826Z,20.35
2022-09-02T08:28:03.833Z,20.38
2022-09-02T08:29:03.790Z,19.65
2022-09-02T08:30:03.843Z,19.50
2022-09-02T08:31:03.780Z,19.36
2022-09-02T08:32:03.810Z,19.28
2022-09-02T08:33:03.747Z,18.82
2022-09-02T08:34:03.754Z,18.85
2022-09-02T08:35:03.723Z,19.04
2022-09-02T08:36:03.713Z,19.13
2022-09-02T08:37:03.700Z,18.99
2022-09-02T08:38:03.830Z,18.63
2022-09-02T08:39:03.702Z,18.18
2022-09-02T08:40:03.671Z,18.25
2022-09-02T08:41:03.669Z,17.92
2022-09-02T08:42:03.699Z,17.81
2022-09-02T08:43:03.635Z,17.93
2022-09-02T08:44:03.640Z,18.14
2022-09-02T08:45:03.635Z,18.27
2022-09-02T08:46:03.724Z,18.50
2022-09-02T08:47:03.589Z,18.75
2022-09-02T08:48:03.601Z,18.99
2022-09-02T08:49:03.568Z,19.25
2022-09-02T08:50:03.955Z,19.39
2022-09-02T08:51:03.545Z,19.51
2022-09-02T08:52:03.537Z,19.33
2022-09-02T08:53:03.549Z,19.29
2022-09-02T08:54:05.643Z,19.36
2022-09-02T08:55:03.520Z,19.46
2022-09-02T08:56:03.505Z,19.68
2022-09-02T08:57:03.480Z,19.91
2022-09-02T08:58:03.592Z,20.03
2022-09-02T08:59:03.460Z,20.10
2022-09-02T09:00:03.475Z,19.86
2022-09-02T09:01:03.563Z,19.76
2022-09-02T09:02:03.482Z,19.69
2022-09-02T09:03:03.422Z,19.92
2022-09-02T09:04:03.400Z,20.10
2022-09-02T09:05:03.410Z,20.24
2022-09-02T09:06:03.377Z,20.41
2022-09-02T09:07:03.372Z,20.62
2022-09-02T09:08:03.365Z,20.82
2022-09-02T09:09:03.364Z,20.82
2022-09-02T09:10:03.330Z,20.80
2022-09-02T09:11:03.318Z,20.74
2022-09-02T09:12:03.314Z,20.70
2022-09-02T09:13:03.295Z,19.54
2022-09-02T09:14:03.332Z,18.98
2022-09-02T09:15:03.323Z,18.99
2022-09-02T09:16:03.291Z,19.06
2022-09-02T09:17:03.267Z,19.10
2022-09-02T09:18:03.276Z,19.02
2022-09-02T09:19:06.913Z,18.82
2022-09-02T09:20:04.251Z,18.91
2022-09-02T09:21:12.040Z,18.95
2022-09-02T09:22:03.260Z,19.14
2022-09-02T09:23:03.240Z,19.32
2022-09-02T09:24:05.441Z,19.55
2022-09-02T09:25:03.246Z,19.68
2022-09-02T09:26:03.315Z,19.84
2022-09-02T09:27:03.173Z,19.76
2022-09-02T09:28:03.180Z,19.71
2022-09-02T09:29:03.121Z,19.50
2022-09-02T09:30:03.145Z,19.65
2022-09-02T09:31:03.102Z,19.76
2022-09-02T09:32:03.244Z,19.76
2022-09-02T09:33:03.125Z,19.66
2022-09-02T09:34:03.087Z,19.37
2022-09-02T09:35:03.148Z,19.13
2022-09-02T09:36:03.104Z,19.13
2022-09-02T09:37:03.042Z,19.11
2022-09-02T09:38:03.045Z,19.16
2022-09-02T09:39:03.021Z,18.99
2022-09-02T09:40:03.004Z,19.04
2022-09-02T09:41:03.062Z,18.82
2022-09-02T09:42:03.003Z,18.67
2022-09-02T09:43:03.046Z,18.66
2022-09-02T09:44:03.001Z,18.65
2022-09-02T09:45:02.960Z,18.69
2022-09-02T09:46:02.991Z,18.85
2022-09-02T09:47:02.959Z,18.98
2022-09-02T09:48:02.940Z,19.19
2022-09-02T09:49:02.925Z,19.26
2022-09-02T09:50:02.918Z,18.92
2022-09-02T09:51:02.894Z,18.91
2022-09-02T09:52:02.870Z,18.95
2022-09-02T09:53:02.876Z,19.08
2022-09-02T09:54:02.890Z,19.31
2022-09-02T09:55:02.864Z,19.59
2022-09-02T09:56:02.828Z,19.63
2022-09-02T09:57:02.856Z,19.83
2022-09-02T09:58:02.902Z,19.86
2022-09-02T09:59:02.847Z,19.74
2022-09-02T10:00:02.799Z,19.81
2022-09-02T10:01:02.889Z,19.77
2022-09-02T10:02:02.828Z,19.91
2022-09-02T10:03:02.749Z,19.78
2022-09-02T10:04:02.734Z,19.68
2022-09-02T10:05:02.730Z,19.59
2022-09-02T10:06:02.736Z,19.21
2022-09-02T10:07:02.725Z,18.95
2022-09-02T10:08:02.687Z,18.76
2022-09-02T10:09:02.709Z,18.67
2022-09-02T10:10:02.670Z,18.50
2022-09-02T10:11:02.654Z,18.39
2022-09-02T10:12:02.764Z,18.30
2022-09-02T10:13:02.679Z,18.30
2022-09-02T10:14:02.641Z,18.36
2022-09-02T10:15:02.651Z,18.44
2022-09-02T10:16:02.659Z,18.50
2022-09-02T10:17:02.601Z,18.51
2022-09-02T10:18:02.598Z,18.47
2022-09-02T10:19:02.572Z,18.51
2022-09-02T10:20:04.461Z,18.51
2022-09-02T10:21:14.782Z,18.50
2022-09-02T10:22:03.536Z,18.58
2022-09-02T10:23:02.524Z,18.45
2022-09-02T10:24:02.521Z,17.92
2022-09-02T10:25:02.542Z,17.74
2022-09-02T10:26:02.506Z,17.78
2022-09-02T10:27:02.483Z,17.96
2022-09-02T10:28:02.613Z,18.10
2022-09-02T10:29:04.294Z,18.17
2022-09-02T10:30:02.479Z,18.25
2022-09-02T10:31:02.787Z,18.36
2022-09-02T10:32:02.426Z,18.48
2022-09-02T10:33:02.421Z,18.55
2022-09-02T10:34:02.414Z,18.51
2022-09-02T10:35:05.360Z,18.57
2022-09-02T10:36:02.379Z,18.65
2022-09-02T10:37:02.364Z,18.50
2022-09-02T10:38:02.354Z,18.51
2022-09-02T10:39:02.388Z,18.62
2022-09-02T10:40:02.337Z,18.66
2022-09-02T10:41:02.348Z,18.69
2022-09-02T10:42:02.338Z,18.70
2022-09-02T10:43:02.307Z,18.70
2022-09-02T10:44:02.310Z,18.82
2022-09-02T10:45:02.280Z,19.07
2022-09-02T10:46:02.289Z,19.26
2022-09-02T10:47:02.347Z,19.51
2022-09-02T10:48:02.284Z,19.76
2022-09-02T10:49:02.252Z,19.98
2022-09-02T10:50:02.367Z,20.06
2022-09-02T10:51:02.239Z,20.23
2022-09-02T10:52:02.216Z,20.33
2022-09-02T10:53:03.750Z,20.39
2022-09-02T10:54:02.687Z,20.51
2022-09-02T10:55:02.163Z,20.50
2022-09-02T10:56:02.173Z,20.51
2022-09-02T10:57:02.152Z,20.57
2022-09-02T10:58:02.174Z,20.38
2022-09-02T10:59:02.156Z,20.23
2022-09-02T11:00:02.126Z,20.23
2022-09-02T11:01:02.105Z,20.13
2022-09-02T11:02:02.099Z,20.13
2022-09-02T11:03:02.143Z,20.31
2022-09-02T11:04:02.100Z,20.38
2022-09-02T11:05:02.115Z,20.61
2022-09-02T11:06:02.038Z,20.57
2022-09-02T11:07:03.526Z,20.72
2022-09-02T11:08:02.051Z,20.59
2022-09-02T11:09:02.014Z,20.54
2022-09-02T11:10:02.006Z,20.62
2022-09-02T11:11:01.997Z,20.38
2022-09-02T11:12:02.038Z,20.33
2022-09-02T11:13:01.967Z,19.88
2022-09-02T11:14:02.020Z,19.76
2022-09-02T11:15:01.981Z,19.39
2022-09-02T11:16:02.001Z,19.31
2022-09-02T11:17:01.978Z,19.19
2022-09-02T11:18:01.966Z,19.26
2022-09-02T11:19:01.902Z,19.26
2022-09-02T11:20:01.893Z,19.13
2022-09-02T11:21:01.894Z,19.08
2022-09-02T11:22:01.918Z,19.11
2022-09-02T11:23:01.872Z,19.04
2022-09-02T11:24:01.845Z,18.90
2022-09-02T11:25:01.838Z,18.85
2022-09-02T11:26:01.855Z,18.84
2022-09-02T11:27:01.807Z,18.88
2022-09-02T11:28:01.812Z,19.02
2022-09-02T11:29:01.791Z,18.85
2022-09-02T11:30:01.778Z,18.65
2022-09-02T11:31:01.789Z,18.73
2022-09-02T11:32:01.774Z,18.70
2022-09-02T11:33:01.739Z,18.82
2022-09-02T11:35:01.744Z,19.32
2022-09-02T11:36:01.701Z,19.43
2022-09-02T11:37:01.732Z,19.36
2022-09-02T11:38:01.706Z,19.36
2022-09-02T11:39:01.679Z,19.16
2022-09-02T11:40:23.558Z,19.22
2022-09-02T11:42:02.685Z,19.46
2022-09-02T11:43:01.668Z,19.62
2022-09-02T11:44:01.645Z,19.74
2022-09-02T11:45:01.600Z,19.78
2022-09-02T11:46:01.650Z,19.58
2022-09-02T11:47:01.653Z,19.46
2022-09-02T11:48:01.583Z,19.55
2022-09-02T11:49:01.567Z,19.48
2022-09-02T11:50:01.549Z,19.62
2022-09-02T11:51:01.565Z,19.63
2022-09-02T11:52:02.123Z,19.62
2022-09-02T11:53:01.515Z,19.81
2022-09-02T11:54:01.500Z,19.99
2022-09-02T11:55:02.791Z,20.24
2022-09-02T11:56:01.487Z,20.51
2022-09-02T11:57:01.527Z,20.73
2022-09-02T11:58:01.502Z,21.09
2022-09-02T11:59:01.468Z,21.34
2022-09-02T12:00:01.455Z,21.49
2022-09-02T12:01:01.422Z,21.69
2022-09-02T12:02:01.421Z,21.98
2022-09-02T12:03:11.498Z,22.10
2022-09-02T12:05:02.906Z,22.25
2022-09-02T12:06:01.570Z,21.71
2022-09-02T12:07:04.442Z,21.31
2022-09-02T12:08:02.343Z,21.14
2022-09-02T12:09:01.367Z,21.10
2022-09-02T12:10:01.333Z,21.09
2022-09-02T12:11:01.374Z,21.13
2022-09-02T12:12:03.964Z,21.22
2022-09-02T12:13:01.870Z,21.16
2022-09-02T12:14:02.967Z,21.22
2022-09-02T12:15:01.336Z,21.29
2022-09-02T12:16:01.302Z,21.09
2022-09-02T12:17:01.823Z,20.87
2022-09-02T12:18:01.237Z,20.72
2022-09-02T12:19:01.296Z,20.67
2022-09-02T12:20:01.238Z,20.51
2022-09-02T12:21:01.254Z,20.55
2022-09-02T12:22:01.194Z,20.61
2022-09-02T12:23:01.206Z,20.66
2022-09-02T12:24:01.203Z,20.64
2022-09-02T12:25:01.487Z,20.61
2022-09-02T12:26:01.151Z,20.62
2022-09-02T12:27:01.152Z,20.41
2022-09-02T12:28:01.125Z,20.42
2022-09-02T12:29:01.120Z,20.42
2022-09-02T12:30:01.138Z,20.41
2022-09-02T12:31:01.121Z,20.39
2022-09-02T12:32:01.106Z,20.38
2022-09-02T12:33:01.093Z,20.52
2022-09-02T12:34:01.066Z,20.55
2022-09-02T12:35:01.105Z,20.54
2022-09-02T12:36:01.038Z,20.70
2022-09-02T12:37:01.026Z,20.50
2022-09-02T12:38:01.019Z,20.38
2022-09-02T12:39:01.031Z,20.55
2022-09-02T12:40:00.994Z,20.74
2022-09-02T12:41:01.009Z,20.87
2022-09-02T12:42:00.973Z,20.94
2022-09-02T12:43:00.957Z,21.10
2022-09-02T12:44:00.971Z,21.04
2022-09-02T12:45:00.940Z,20.89
2022-09-02T12:46:00.957Z,20.88
2022-09-02T12:47:00.971Z,20.67
2022-09-02T12:48:00.906Z,20.66
2022-09-02T12:49:00.936Z,20.66
2022-09-02T12:50:00.888Z,20.54
2022-09-02T12:51:00.879Z,20.31
2022-09-02T12:52:00.867Z,19.99
2022-09-02T12:53:00.889Z,19.80
2022-09-02T12:54:00.846Z,19.76
2022-09-02T12:55:00.833Z,19.69
2022-09-02T12:56:00.821Z,19.88
2022-09-02T12:57:00.874Z,19.76
2022-09-02T12:58:00.809Z,19.87
2022-09-02T12:59:02.881Z,19.99
2022-09-02T13:00:00.777Z,20.03
2022-09-02T13:01:00.768Z,20.10
2022-09-02T13:02:00.759Z,20.17
2022-09-02T13:03:00.766Z,20.43
2022-09-02T13:04:00.738Z,20.55
2022-09-02T13:05:00.775Z,20.69
2022-09-02T13:06:00.714Z,20.73
2022-09-02T13:07:00.710Z,20.79
2022-09-02T13:08:02.383Z,20.94
2022-09-02T13:09:00.677Z,20.91